首页
METAR-TAF:

METAR-TAF

机场 :

什里夫波特, 路易斯安那州, 美国

纬度: 32-32-33N, 经度: 093-44-41W, 海拔: 54米

当前天气观测

该预报发布于14分钟前的21:53 UTC
风速7节,风向东转东北
温度 12°C
湿度 38%
气压 1032 hPa
能見度: 16.1公里
天空无云

METAR: KDTN 112153Z 06007KT 10SM CLR 12/M02 A3047 RMK AO2 SLP319 T01221017

时间: 16:07 (22:07 UTC)


TAF: 丢失

超过4000个机场的气象观测和天气预报(METAR&TAF报告)。

可查询的气象台以黄色和红色小点在地图上表示。

将鼠标移到小点上方,可查看气象台名称。

然后点击查看天气观测和预报。

如需切换地图:点击带黑十字的绿色按钮放大地图;点击带横线的绿色按钮缩小地图;或者点击绿色箭头查看邻近地区的地图。


METAR-TAF: